sensor_id;sensor_type;location;lat;lon;timestamp;P1;durP1;ratioP1;P2;durP2;ratioP2
10092;SDS011;5085;48.092;11.484;2022-08-21T00:01:09;3.28;;;2.95;;
10092;SDS011;5085;48.092;11.484;2022-08-21T00:03:35;2.75;;;2.55;;
10092;SDS011;5085;48.092;11.484;2022-08-21T00:06:01;3.25;;;2.95;;
10092;SDS011;5085;48.092;11.484;2022-08-21T00:08:26;4.00;;;1.90;;
10092;SDS011;5085;48.092;11.484;2022-08-21T00:10:51;2.63;;;2.42;;
10092;SDS011;5085;48.092;11.484;2022-08-21T00:13:17;2.72;;;2.53;;
10092;SDS011;5085;48.092;11.484;2022-08-21T00:15:42;2.45;;;2.25;;
10092;SDS011;5085;48.092;11.484;2022-08-21T00:18:08;2.05;;;1.90;;
10092;SDS011;5085;48.092;11.484;2022-08-21T00:20:36;4.50;;;2.65;;
10092;SDS011;5085;48.092;11.484;2022-08-21T00:23:01;3.47;;;2.58;;
10092;SDS011;5085;48.092;11.484;2022-08-21T00:25:27;2.00;;;1.80;;
10092;SDS011;5085;48.092;11.484;2022-08-21T00:27:53;2.78;;;2.28;;
10092;SDS011;5085;48.092;11.484;2022-08-21T00:30:18;2.17;;;1.98;;
10092;SDS011;5085;48.092;11.484;2022-08-21T00:32:44;4.47;;;2.85;;
10092;SDS011;5085;48.092;11.484;2022-08-21T00:35:11;2.83;;;2.25;;
10092;SDS011;5085;48.092;11.484;2022-08-21T00:37:37;4.28;;;3.17;;
10092;SDS011;5085;48.092;11.484;2022-08-21T00:40:03;2.10;;;1.90;;
10092;SDS011;5085;48.092;11.484;2022-08-21T00:42:28;2.00;;;1.90;;
10092;SDS011;5085;48.092;11.484;2022-08-21T00:44:55;2.47;;;2.28;;
10092;SDS011;5085;48.092;11.484;2022-08-21T00:47:20;2.80;;;2.60;;
10092;SDS011;5085;48.092;11.484;2022-08-21T00:49:45;2.90;;;1.95;;
10092;SDS011;5085;48.092;11.484;2022-08-21T00:52:13;2.00;;;1.80;;
10092;SDS011;5085;48.092;11.484;2022-08-21T00:54:39;2.60;;;2.40;;
10092;SDS011;5085;48.092;11.484;2022-08-21T00:57:07;2.50;;;2.30;;
10092;SDS011;5085;48.092;11.484;2022-08-21T00:59:35;2.58;;;2.38;;
10092;SDS011;5085;48.092;11.484;2022-08-21T01:02:01;1.75;;;1.65;;
10092;SDS011;5085;48.092;11.484;2022-08-21T01:04:27;2.33;;;2.17;;
10092;SDS011;5085;48.092;11.484;2022-08-21T01:06:52;2.90;;;2.70;;
10092;SDS011;5085;48.092;11.484;2022-08-21T01:09:17;2.53;;;2.43;;
10092;SDS011;5085;48.092;11.484;2022-08-21T01:11:43;2.20;;;2.00;;
10092;SDS011;5085;48.092;11.484;2022-08-21T01:14:09;2.85;;;2.33;;
10092;SDS011;5085;48.092;11.484;2022-08-21T01:16:37;6.88;;;2.63;;
10092;SDS011;5085;48.092;11.484;2022-08-21T01:19:02;2.13;;;1.93;;
10092;SDS011;5085;48.092;11.484;2022-08-21T01:21:28;2.10;;;2.00;;
10092;SDS011;5085;48.092;11.484;2022-08-21T01:23:53;3.30;;;2.30;;
10092;SDS011;5085;48.092;11.484;2022-08-21T01:26:20;3.22;;;2.47;;
10092;SDS011;5085;48.092;11.484;2022-08-21T01:28:52;3.13;;;2.20;;
10092;SDS011;5085;48.092;11.484;2022-08-21T01:31:19;2.53;;;2.33;;
10092;SDS011;5085;48.092;11.484;2022-08-21T01:33:47;2.23;;;2.10;;
10092;SDS011;5085;48.092;11.484;2022-08-21T01:36:12;3.30;;;2.13;;
10092;SDS011;5085;48.092;11.484;2022-08-21T01:38:37;2.30;;;2.10;;
10092;SDS011;5085;48.092;11.484;2022-08-21T01:41:03;3.00;;;2.73;;
10092;SDS011;5085;48.092;11.484;2022-08-21T01:43:28;2.43;;;2.23;;
10092;SDS011;5085;48.092;11.484;2022-08-21T01:45:53;2.40;;;2.17;;
10092;SDS011;5085;48.092;11.484;2022-08-21T01:48:18;2.87;;;2.57;;
10092;SDS011;5085;48.092;11.484;2022-08-21T01:50:44;2.33;;;2.13;;
10092;SDS011;5085;48.092;11.484;2022-08-21T01:53:09;2.42;;;2.22;;
10092;SDS011;5085;48.092;11.484;2022-08-21T01:55:34;2.42;;;2.00;;
10092;SDS011;5085;48.092;11.484;2022-08-21T01:57:59;2.60;;;2.40;;
10092;SDS011;5085;48.092;11.484;2022-08-21T02:00:25;2.63;;;2.40;;
10092;SDS011;5085;48.092;11.484;2022-08-21T02:02:50;2.07;;;1.97;;
10092;SDS011;5085;48.092;11.484;2022-08-21T02:05:16;2.05;;;1.95;;
10092;SDS011;5085;48.092;11.484;2022-08-21T02:07:43;4.03;;;2.78;;
10092;SDS011;5085;48.092;11.484;2022-08-21T02:10:09;2.17;;;2.03;;
10092;SDS011;5085;48.092;11.484;2022-08-21T02:12:35;2.30;;;2.20;;
10092;SDS011;5085;48.092;11.484;2022-08-21T02:15:00;2.10;;;1.93;;
10092;SDS011;5085;48.092;11.484;2022-08-21T02:17:25;2.17;;;2.07;;
10092;SDS011;5085;48.092;11.484;2022-08-21T02:19:51;2.10;;;2.00;;
10092;SDS011;5085;48.092;11.484;2022-08-21T02:22:16;2.13;;;2.00;;
10092;SDS011;5085;48.092;11.484;2022-08-21T02:24:41;2.42;;;1.90;;
10092;SDS011;5085;48.092;11.484;2022-08-21T02:27:06;2.20;;;2.10;;
10092;SDS011;5085;48.092;11.484;2022-08-21T02:29:32;2.60;;;2.40;;
10092;SDS011;5085;48.092;11.484;2022-08-21T02:31:57;3.10;;;2.30;;
10092;SDS011;5085;48.092;11.484;2022-08-21T02:34:22;2.60;;;2.00;;
10092;SDS011;5085;48.092;11.484;2022-08-21T02:36:47;2.13;;;1.93;;
10092;SDS011;5085;48.092;11.484;2022-08-21T02:39:13;2.17;;;2.00;;
10092;SDS011;5085;48.092;11.484;2022-08-21T02:41:38;2.70;;;2.17;;
10092;SDS011;5085;48.092;11.484;2022-08-21T02:44:04;3.67;;;2.50;;
10092;SDS011;5085;48.092;11.484;2022-08-21T02:46:29;2.97;;;2.78;;
10092;SDS011;5085;48.092;11.484;2022-08-21T02:48:55;3.07;;;2.77;;
10092;SDS011;5085;48.092;11.484;2022-08-21T02:51:20;2.87;;;2.63;;
10092;SDS011;5085;48.092;11.484;2022-08-21T02:53:47;2.58;;;2.40;;
10092;SDS011;5085;48.092;11.484;2022-08-21T02:56:14;2.47;;;2.30;;
10092;SDS011;5085;48.092;11.484;2022-08-21T02:58:41;3.00;;;2.80;;
10092;SDS011;5085;48.092;11.484;2022-08-21T03:01:07;2.85;;;2.58;;
10092;SDS011;5085;48.092;11.484;2022-08-21T03:03:34;3.10;;;2.80;;
10092;SDS011;5085;48.092;11.484;2022-08-21T03:06:00;2.40;;;2.20;;
10092;SDS011;5085;48.092;11.484;2022-08-21T03:08:25;3.17;;;2.60;;
10092;SDS011;5085;48.092;11.484;2022-08-21T03:10:51;2.93;;;2.30;;
10092;SDS011;5085;48.092;11.484;2022-08-21T03:13:17;2.87;;;2.67;;
10092;SDS011;5085;48.092;11.484;2022-08-21T03:15:43;2.30;;;2.10;;
10092;SDS011;5085;48.092;11.484;2022-08-21T03:18:09;2.90;;;2.63;;
10092;SDS011;5085;48.092;11.484;2022-08-21T03:20:35;3.93;;;2.43;;
10092;SDS011;5085;48.092;11.484;2022-08-21T03:23:00;2.55;;;2.38;;
10092;SDS011;5085;48.092;11.484;2022-08-21T03:25:26;2.73;;;2.53;;
10092;SDS011;5085;48.092;11.484;2022-08-21T03:27:52;2.80;;;2.50;;
10092;SDS011;5085;48.092;11.484;2022-08-21T03:30:18;3.00;;;2.73;;
10092;SDS011;5085;48.092;11.484;2022-08-21T03:32:45;3.27;;;2.60;;
10092;SDS011;5085;48.092;11.484;2022-08-21T03:35:11;3.27;;;2.97;;
10092;SDS011;5085;48.092;11.484;2022-08-21T03:37:36;3.30;;;2.80;;
10092;SDS011;5085;48.092;11.484;2022-08-21T03:40:03;2.73;;;2.53;;
10092;SDS011;5085;48.092;11.484;2022-08-21T03:42:28;2.50;;;2.40;;
10092;SDS011;5085;48.092;11.484;2022-08-21T03:44:53;2.83;;;2.63;;
10092;SDS011;5085;48.092;11.484;2022-08-21T03:47:19;3.33;;;2.63;;
10092;SDS011;5085;48.092;11.484;2022-08-21T03:49:44;3.20;;;2.90;;
10092;SDS011;5085;48.092;11.484;2022-08-21T03:52:09;4.57;;;2.43;;
10092;SDS011;5085;48.092;11.484;2022-08-21T03:54:34;3.20;;;2.90;;
10092;SDS011;5085;48.092;11.484;2022-08-21T03:57:01;4.03;;;3.27;;
10092;SDS011;5085;48.092;11.484;2022-08-21T03:59:26;3.17;;;2.87;;
10092;SDS011;5085;48.092;11.484;2022-08-21T04:01:53;2.97;;;2.77;;
10092;SDS011;5085;48.092;11.484;2022-08-21T04:04:18;3.80;;;3.00;;
10092;SDS011;5085;48.092;11.484;2022-08-21T04:06:44;3.53;;;3.23;;
10092;SDS011;5085;48.092;11.484;2022-08-21T04:09:09;3.03;;;2.70;;
10092;SDS011;5085;48.092;11.484;2022-08-21T04:11:34;3.50;;;3.20;;
10092;SDS011;5085;48.092;11.484;2022-08-21T04:13:59;3.10;;;2.90;;
10092;SDS011;5085;48.092;11.484;2022-08-21T04:16:25;3.27;;;3.00;;
10092;SDS011;5085;48.092;11.484;2022-08-21T04:18:50;3.63;;;3.33;;
10092;SDS011;5085;48.092;11.484;2022-08-21T04:21:15;3.83;;;3.17;;
10092;SDS011;5085;48.092;11.484;2022-08-21T04:23:41;3.03;;;2.73;;
10092;SDS011;5085;48.092;11.484;2022-08-21T04:26:06;5.60;;;3.37;;
10092;SDS011;5085;48.092;11.484;2022-08-21T04:28:31;3.50;;;3.20;;
10092;SDS011;5085;48.092;11.484;2022-08-21T04:30:57;3.53;;;3.23;;
10092;SDS011;5085;48.092;11.484;2022-08-21T04:33:22;5.67;;;3.60;;
10092;SDS011;5085;48.092;11.484;2022-08-21T04:35:48;2.90;;;2.70;;
10092;SDS011;5085;48.092;11.484;2022-08-21T04:38:13;3.53;;;3.17;;
10092;SDS011;5085;48.092;11.484;2022-08-21T04:40:39;3.70;;;3.40;;
10092;SDS011;5085;48.092;11.484;2022-08-21T04:43:06;3.03;;;2.83;;
10092;SDS011;5085;48.092;11.484;2022-08-21T04:45:34;3.50;;;3.20;;
10092;SDS011;5085;48.092;11.484;2022-08-21T04:48:00;3.27;;;2.97;;
10092;SDS011;5085;48.092;11.484;2022-08-21T04:50:28;3.50;;;3.20;;
10092;SDS011;5085;48.092;11.484;2022-08-21T04:52:55;3.20;;;2.90;;
10092;SDS011;5085;48.092;11.484;2022-08-21T04:55:20;3.63;;;3.23;;
10092;SDS011;5085;48.092;11.484;2022-08-21T04:57:47;3.23;;;2.80;;
10092;SDS011;5085;48.092;11.484;2022-08-21T05:00:12;3.17;;;2.97;;
10092;SDS011;5085;48.092;11.484;2022-08-21T05:02:39;3.67;;;3.17;;
10092;SDS011;5085;48.092;11.484;2022-08-21T05:05:05;3.83;;;3.03;;
10092;SDS011;5085;48.092;11.484;2022-08-21T05:07:30;3.30;;;3.00;;
10092;SDS011;5085;48.092;11.484;2022-08-21T05:09:56;3.70;;;3.40;;
10092;SDS011;5085;48.092;11.484;2022-08-21T05:12:22;3.13;;;2.87;;
10092;SDS011;5085;48.092;11.484;2022-08-21T05:14:47;3.23;;;2.97;;
10092;SDS011;5085;48.092;11.484;2022-08-21T05:17:13;4.60;;;4.20;;
10092;SDS011;5085;48.092;11.484;2022-08-21T05:19:38;3.53;;;3.17;;
10092;SDS011;5085;48.092;11.484;2022-08-21T05:22:03;3.13;;;2.87;;
10092;SDS011;5085;48.092;11.484;2022-08-21T05:24:29;4.37;;;3.23;;
10092;SDS011;5085;48.092;11.484;2022-08-21T05:26:54;5.17;;;2.70;;
10092;SDS011;5085;48.092;11.484;2022-08-21T05:29:20;3.83;;;3.23;;
10092;SDS011;5085;48.092;11.484;2022-08-21T05:31:45;2.97;;;2.50;;
10092;SDS011;5085;48.092;11.484;2022-08-21T05:34:12;3.40;;;3.10;;
10092;SDS011;5085;48.092;11.484;2022-08-21T05:36:37;3.53;;;2.70;;
10092;SDS011;5085;48.092;11.484;2022-08-21T05:39:02;3.33;;;3.10;;
10092;SDS011;5085;48.092;11.484;2022-08-21T05:41:28;2.97;;;2.67;;
10092;SDS011;5085;48.092;11.484;2022-08-21T05:43:53;3.03;;;2.83;;
10092;SDS011;5085;48.092;11.484;2022-08-21T05:46:18;3.27;;;2.97;;
10092;SDS011;5085;48.092;11.484;2022-08-21T05:48:44;3.83;;;3.50;;
10092;SDS011;5085;48.092;11.484;2022-08-21T05:51:10;3.33;;;3.10;;
10092;SDS011;5085;48.092;11.484;2022-08-21T05:53:36;3.55;;;3.35;;
10092;SDS011;5085;48.092;11.484;2022-08-21T05:56:02;3.60;;;3.30;;
10092;SDS011;5085;48.092;11.484;2022-08-21T05:58:29;3.65;;;3.45;;
10092;SDS011;5085;48.092;11.484;2022-08-21T06:00:54;3.60;;;3.30;;
10092;SDS011;5085;48.092;11.484;2022-08-21T06:03:21;4.50;;;3.45;;
10092;SDS011;5085;48.092;11.484;2022-08-21T06:05:46;3.42;;;3.20;;
10092;SDS011;5085;48.092;11.484;2022-08-21T06:08:13;2.67;;;2.35;;
10092;SDS011;5085;48.092;11.484;2022-08-21T06:10:38;4.30;;;2.78;;
10092;SDS011;5085;48.092;11.484;2022-08-21T06:13:03;2.40;;;2.30;;
10092;SDS011;5085;48.092;11.484;2022-08-21T06:15:29;2.65;;;2.40;;
10092;SDS011;5085;48.092;11.484;2022-08-21T06:17:55;1.80;;;1.70;;
10092;SDS011;5085;48.092;11.484;2022-08-21T06:20:20;2.80;;;2.53;;
10092;SDS011;5085;48.092;11.484;2022-08-21T06:22:45;2.55;;;2.35;;
10092;SDS011;5085;48.092;11.484;2022-08-21T06:25:11;2.20;;;1.95;;
10092;SDS011;5085;48.092;11.484;2022-08-21T06:27:36;2.60;;;2.40;;
10092;SDS011;5085;48.092;11.484;2022-08-21T06:30:03;2.35;;;2.10;;
10092;SDS011;5085;48.092;11.484;2022-08-21T06:32:28;3.75;;;2.50;;
10092;SDS011;5085;48.092;11.484;2022-08-21T06:34:53;2.30;;;2.15;;
10092;SDS011;5085;48.092;11.484;2022-08-21T06:37:19;2.50;;;2.30;;
10092;SDS011;5085;48.092;11.484;2022-08-21T06:39:44;2.13;;;2.03;;
10092;SDS011;5085;48.092;11.484;2022-08-21T06:42:13;2.05;;;1.70;;
10092;SDS011;5085;48.092;11.484;2022-08-21T06:44:38;2.67;;;1.70;;
10092;SDS011;5085;48.092;11.484;2022-08-21T06:47:04;2.13;;;1.70;;
10092;SDS011;5085;48.092;11.484;2022-08-21T06:53:06;2.75;;;1.90;;
10092;SDS011;5085;48.092;11.484;2022-08-21T06:55:32;2.25;;;2.05;;
10092;SDS011;5085;48.092;11.484;2022-08-21T06:57:58;2.28;;;1.90;;
10092;SDS011;5085;48.092;11.484;2022-08-21T07:00:23;3.45;;;1.80;;
10092;SDS011;5085;48.092;11.484;2022-08-21T07:02:48;2.50;;;1.80;;
10092;SDS011;5085;48.092;11.484;2022-08-21T07:05:13;2.55;;;1.60;;
10092;SDS011;5085;48.092;11.484;2022-08-21T07:07:39;1.80;;;1.70;;
10092;SDS011;5085;48.092;11.484;2022-08-21T07:10:04;3.17;;;1.98;;
10092;SDS011;5085;48.092;11.484;2022-08-21T07:12:29;2.03;;;1.85;;
10092;SDS011;5085;48.092;11.484;2022-08-21T07:14:55;2.22;;;1.90;;
10092;SDS011;5085;48.092;11.484;2022-08-21T07:17:20;1.80;;;1.63;;
10092;SDS011;5085;48.092;11.484;2022-08-21T07:19:45;1.90;;;1.70;;
10092;SDS011;5085;48.092;11.484;2022-08-21T07:22:11;1.75;;;1.65;;
10092;SDS011;5085;48.092;11.484;2022-08-21T07:24:37;2.67;;;1.80;;
10092;SDS011;5085;48.092;11.484;2022-08-21T07:27:02;2.00;;;1.80;;
10092;SDS011;5085;48.092;11.484;2022-08-21T07:29:27;2.70;;;1.60;;
10092;SDS011;5085;48.092;11.484;2022-08-21T07:31:52;3.13;;;1.60;;
10092;SDS011;5085;48.092;11.484;2022-08-21T07:34:17;2.38;;;1.80;;
10092;SDS011;5085;48.092;11.484;2022-08-21T07:36:43;2.00;;;1.83;;
10092;SDS011;5085;48.092;11.484;2022-08-21T07:39:08;2.03;;;1.83;;
10092;SDS011;5085;48.092;11.484;2022-08-21T07:41:34;1.95;;;1.85;;
10092;SDS011;5085;48.092;11.484;2022-08-21T07:44:00;4.03;;;2.03;;
10092;SDS011;5085;48.092;11.484;2022-08-21T07:46:25;1.70;;;1.58;;
10092;SDS011;5085;48.092;11.484;2022-08-21T07:48:51;2.17;;;1.98;;
10092;SDS011;5085;48.092;11.484;2022-08-21T07:51:16;1.75;;;1.65;;
10092;SDS011;5085;48.092;11.484;2022-08-21T07:53:42;2.20;;;2.00;;
10092;SDS011;5085;48.092;11.484;2022-08-21T07:56:12;1.55;;;1.42;;
10092;SDS011;5085;48.092;11.484;2022-08-21T07:58:37;2.08;;;1.88;;
10092;SDS011;5085;48.092;11.484;2022-08-21T08:01:02;1.85;;;1.70;;
10092;SDS011;5085;48.092;11.484;2022-08-21T08:03:28;2.47;;;1.70;;
10092;SDS011;5085;48.092;11.484;2022-08-21T08:05:53;1.60;;;1.50;;
10092;SDS011;5085;48.092;11.484;2022-08-21T08:08:18;4.05;;;1.90;;
10092;SDS011;5085;48.092;11.484;2022-08-21T08:10:44;1.67;;;1.58;;
10092;SDS011;5085;48.092;11.484;2022-08-21T08:13:09;2.03;;;1.70;;
10092;SDS011;5085;48.092;11.484;2022-08-21T08:15:35;2.28;;;1.98;;
10092;SDS011;5085;48.092;11.484;2022-08-21T08:18:00;1.60;;;1.50;;
10092;SDS011;5085;48.092;11.484;2022-08-21T08:20:26;3.33;;;1.77;;
10092;SDS011;5085;48.092;11.484;2022-08-21T08:22:52;1.58;;;1.48;;
10092;SDS011;5085;48.092;11.484;2022-08-21T08:25:17;3.08;;;1.50;;
10092;SDS011;5085;48.092;11.484;2022-08-21T08:27:42;1.80;;;1.70;;
10092;SDS011;5085;48.092;11.484;2022-08-21T08:30:09;1.67;;;1.58;;
10092;SDS011;5085;48.092;11.484;2022-08-21T08:32:34;1.98;;;1.58;;
10092;SDS011;5085;48.092;11.484;2022-08-21T08:35:00;1.45;;;1.35;;
10092;SDS011;5085;48.092;11.484;2022-08-21T08:37:25;1.77;;;1.67;;
10092;SDS011;5085;48.092;11.484;2022-08-21T08:39:50;1.73;;;1.63;;
10092;SDS011;5085;48.092;11.484;2022-08-21T08:42:27;2.20;;;2.00;;
10092;SDS011;5085;48.092;11.484;2022-08-21T08:44:56;2.28;;;1.70;;
10092;SDS011;5085;48.092;11.484;2022-08-21T08:47:22;1.80;;;1.67;;
10092;SDS011;5085;48.092;11.484;2022-08-21T08:49:53;2.10;;;1.63;;
10092;SDS011;5085;48.092;11.484;2022-08-21T08:52:30;2.15;;;1.95;;
10092;SDS011;5085;48.092;11.484;2022-08-21T08:55:07;1.70;;;1.60;;
10092;SDS011;5085;48.092;11.484;2022-08-21T08:57:33;3.00;;;2.10;;
10092;SDS011;5085;48.092;11.484;2022-08-21T09:00:00;2.35;;;2.15;;
10092;SDS011;5085;48.092;11.484;2022-08-21T09:02:26;2.20;;;2.00;;
10092;SDS011;5085;48.092;11.484;2022-08-21T09:04:54;2.10;;;1.88;;
10092;SDS011;5085;48.092;11.484;2022-08-21T09:07:25;1.90;;;1.77;;
10092;SDS011;5085;48.092;11.484;2022-08-21T09:10:04;3.17;;;1.95;;
10092;SDS011;5085;48.092;11.484;2022-08-21T09:12:36;2.20;;;1.75;;
10092;SDS011;5085;48.092;11.484;2022-08-21T09:15:09;2.67;;;2.10;;
10092;SDS011;5085;48.092;11.484;2022-08-21T09:20:09;2.67;;;1.70;;
10092;SDS011;5085;48.092;11.484;2022-08-21T09:22:39;1.88;;;1.77;;
10092;SDS011;5085;48.092;11.484;2022-08-21T09:25:10;1.83;;;1.73;;
10092;SDS011;5085;48.092;11.484;2022-08-21T09:27:37;3.28;;;2.42;;
10092;SDS011;5085;48.092;11.484;2022-08-21T09:30:03;2.42;;;2.22;;
10092;SDS011;5085;48.092;11.484;2022-08-21T09:32:30;2.25;;;2.00;;
10092;SDS011;5085;48.092;11.484;2022-08-21T09:37:25;2.10;;;1.90;;
10092;SDS011;5085;48.092;11.484;2022-08-21T09:39:51;2.58;;;2.38;;
10092;SDS011;5085;48.092;11.484;2022-08-21T09:42:27;1.80;;;1.70;;
10092;SDS011;5085;48.092;11.484;2022-08-21T09:45:08;2.35;;;2.17;;
10092;SDS011;5085;48.092;11.484;2022-08-21T09:47:34;3.63;;;2.20;;
10092;SDS011;5085;48.092;11.484;2022-08-21T09:50:07;2.40;;;2.20;;
10092;SDS011;5085;48.092;11.484;2022-08-21T09:52:32;2.05;;;1.92;;
10092;SDS011;5085;48.092;11.484;2022-08-21T09:54:57;2.72;;;2.28;;
10092;SDS011;5085;48.092;11.484;2022-08-21T09:57:24;2.30;;;2.20;;
10092;SDS011;5085;48.092;11.484;2022-08-21T10:00:26;3.05;;;2.40;;
10092;SDS011;5085;48.092;11.484;2022-08-21T10:02:52;2.55;;;2.35;;
10092;SDS011;5085;48.092;11.484;2022-08-21T10:05:22;2.42;;;2.22;;
10092;SDS011;5085;48.092;11.484;2022-08-21T10:07:48;2.53;;;2.30;;
10092;SDS011;5085;48.092;11.484;2022-08-21T10:10:16;2.05;;;1.95;;
10092;SDS011;5085;48.092;11.484;2022-08-21T10:12:47;2.15;;;1.90;;
10092;SDS011;5085;48.092;11.484;2022-08-21T10:21:08;2.13;;;1.50;;
10092;SDS011;5085;48.092;11.484;2022-08-21T10:26:09;1.98;;;1.60;;
10092;SDS011;5085;48.092;11.484;2022-08-21T10:28:51;1.60;;;1.50;;
10092;SDS011;5085;48.092;11.484;2022-08-21T10:31:28;2.35;;;1.52;;
10092;SDS011;5085;48.092;11.484;2022-08-21T10:34:07;1.70;;;1.60;;
10092;SDS011;5085;48.092;11.484;2022-08-21T10:39:27;2.65;;;1.92;;
10092;SDS011;5085;48.092;11.484;2022-08-21T10:42:07;3.67;;;1.70;;
10092;SDS011;5085;48.092;11.484;2022-08-21T10:52:31;3.65;;;2.15;;
10092;SDS011;5085;48.092;11.484;2022-08-21T11:00:06;2.20;;;2.00;;
10092;SDS011;5085;48.092;11.484;2022-08-21T11:02:37;2.35;;;1.58;;
10092;SDS011;5085;48.092;11.484;2022-08-21T11:05:15;2.00;;;1.75;;
10092;SDS011;5085;48.092;11.484;2022-08-21T11:07:43;1.90;;;1.80;;
10092;SDS011;5085;48.092;11.484;2022-08-21T11:10:14;2.10;;;1.90;;
10092;SDS011;5085;48.092;11.484;2022-08-21T11:12:42;2.10;;;1.90;;
10092;SDS011;5085;48.092;11.484;2022-08-21T11:23:03;2.20;;;2.10;;
10092;SDS011;5085;48.092;11.484;2022-08-21T11:25:35;2.00;;;1.90;;
10092;SDS011;5085;48.092;11.484;2022-08-21T11:36:26;2.60;;;2.40;;
10092;SDS011;5085;48.092;11.484;2022-08-21T11:38:46;2.50;;;2.30;;
10092;SDS011;5085;48.092;11.484;2022-08-21T11:41:34;2.10;;;1.90;;
10092;SDS011;5085;48.092;11.484;2022-08-21T11:44:15;2.17;;;1.83;;
10092;SDS011;5085;48.092;11.484;2022-08-21T11:46:46;2.05;;;1.95;;
10092;SDS011;5085;48.092;11.484;2022-08-21T11:49:17;1.98;;;1.88;;
10092;SDS011;5085;48.092;11.484;2022-08-21T11:54:34;2.40;;;1.88;;
10092;SDS011;5085;48.092;11.484;2022-08-21T11:57:05;2.20;;;1.90;;
10092;SDS011;5085;48.092;11.484;2022-08-21T11:59:36;1.73;;;1.63;;
10092;SDS011;5085;48.092;11.484;2022-08-21T12:02:02;1.70;;;1.60;;
10092;SDS011;5085;48.092;11.484;2022-08-21T12:04:32;2.05;;;1.85;;
10092;SDS011;5085;48.092;11.484;2022-08-21T12:07:27;2.22;;;1.95;;
10092;SDS011;5085;48.092;11.484;2022-08-21T12:09:54;2.42;;;2.08;;
10092;SDS011;5085;48.092;11.484;2022-08-21T12:20:35;2.28;;;1.98;;
10092;SDS011;5085;48.092;11.484;2022-08-21T12:25:40;2.35;;;2.15;;
10092;SDS011;5085;48.092;11.484;2022-08-21T12:28:07;2.40;;;2.20;;
10092;SDS011;5085;48.092;11.484;2022-08-21T12:30:37;2.00;;;1.90;;
10092;SDS011;5085;48.092;11.484;2022-08-21T12:33:17;1.95;;;1.85;;
10092;SDS011;5085;48.092;11.484;2022-08-21T12:35:44;2.03;;;1.92;;
10092;SDS011;5085;48.092;11.484;2022-08-21T12:38:12;1.85;;;1.75;;
10092;SDS011;5085;48.092;11.484;2022-08-21T12:41:00;2.17;;;1.98;;
10092;SDS011;5085;48.092;11.484;2022-08-21T12:43:30;1.98;;;1.88;;
10092;SDS011;5085;48.092;11.484;2022-08-21T12:45:57;2.40;;;2.20;;
10092;SDS011;5085;48.092;11.484;2022-08-21T12:50:58;2.40;;;1.83;;
10092;SDS011;5085;48.092;11.484;2022-08-21T12:55:57;2.28;;;2.00;;
10092;SDS011;5085;48.092;11.484;2022-08-21T12:58:26;2.00;;;1.90;;
10092;SDS011;5085;48.092;11.484;2022-08-21T13:01:04;2.00;;;1.88;;
10092;SDS011;5085;48.092;11.484;2022-08-21T13:03:31;1.88;;;1.77;;
10092;SDS011;5085;48.092;11.484;2022-08-21T13:05:59;2.13;;;1.73;;
10092;SDS011;5085;48.092;11.484;2022-08-21T13:08:24;2.08;;;1.88;;
10092;SDS011;5085;48.092;11.484;2022-08-21T13:10:55;2.08;;;1.88;;
10092;SDS011;5085;48.092;11.484;2022-08-21T13:13:22;3.20;;;1.70;;
10092;SDS011;5085;48.092;11.484;2022-08-21T13:15:48;3.15;;;2.05;;
10092;SDS011;5085;48.092;11.484;2022-08-21T13:18:20;1.70;;;1.60;;
10092;SDS011;5085;48.092;11.484;2022-08-21T13:20:47;1.75;;;1.65;;
10092;SDS011;5085;48.092;11.484;2022-08-21T13:23:19;2.00;;;1.90;;
10092;SDS011;5085;48.092;11.484;2022-08-21T13:25:44;1.95;;;1.85;;
10092;SDS011;5085;48.092;11.484;2022-08-21T13:28:11;1.85;;;1.75;;
10092;SDS011;5085;48.092;11.484;2022-08-21T13:30:38;2.20;;;2.00;;
10092;SDS011;5085;48.092;11.484;2022-08-21T13:33:04;2.03;;;1.90;;
10092;SDS011;5085;48.092;11.484;2022-08-21T13:35:34;1.90;;;1.80;;
10092;SDS011;5085;48.092;11.484;2022-08-21T13:38:00;2.47;;;1.95;;
10092;SDS011;5085;48.092;11.484;2022-08-21T13:40:32;2.22;;;1.98;;
10092;SDS011;5085;48.092;11.484;2022-08-21T13:42:57;2.45;;;2.03;;
10092;SDS011;5085;48.092;11.484;2022-08-21T13:45:25;2.20;;;2.00;;
10092;SDS011;5085;48.092;11.484;2022-08-21T13:47:51;2.08;;;1.95;;
10092;SDS011;5085;48.092;11.484;2022-08-21T13:50:18;1.88;;;1.67;;
10092;SDS011;5085;48.092;11.484;2022-08-21T13:53:04;1.90;;;1.80;;
10092;SDS011;5085;48.092;11.484;2022-08-21T13:55:34;2.00;;;1.80;;
10092;SDS011;5085;48.092;11.484;2022-08-21T13:58:01;2.88;;;1.90;;
10092;SDS011;5085;48.092;11.484;2022-08-21T14:00:27;2.70;;;1.70;;
10092;SDS011;5085;48.092;11.484;2022-08-21T14:02:53;2.20;;;1.67;;
10092;SDS011;5085;48.092;11.484;2022-08-21T14:05:25;2.15;;;1.80;;
10092;SDS011;5085;48.092;11.484;2022-08-21T14:08:02;1.77;;;1.60;;
10092;SDS011;5085;48.092;11.484;2022-08-21T14:10:28;3.03;;;1.65;;
10092;SDS011;5085;48.092;11.484;2022-08-21T14:12:56;1.75;;;1.65;;
10092;SDS011;5085;48.092;11.484;2022-08-21T14:15:24;1.65;;;1.50;;
10092;SDS011;5085;48.092;11.484;2022-08-21T14:17:50;3.45;;;1.77;;
10092;SDS011;5085;48.092;11.484;2022-08-21T14:20:26;2.75;;;2.00;;
10092;SDS011;5085;48.092;11.484;2022-08-21T14:22:51;1.70;;;1.60;;
10092;SDS011;5085;48.092;11.484;2022-08-21T14:27:49;2.40;;;1.88;;
10092;SDS011;5085;48.092;11.484;2022-08-21T14:32:43;2.03;;;1.92;;
10092;SDS011;5085;48.092;11.484;2022-08-21T14:35:10;1.88;;;1.77;;
10092;SDS011;5085;48.092;11.484;2022-08-21T14:37:35;1.50;;;1.40;;
10092;SDS011;5085;48.092;11.484;2022-08-21T14:40:01;2.17;;;1.73;;
10092;SDS011;5085;48.092;11.484;2022-08-21T14:42:27;2.95;;;1.90;;
10092;SDS011;5085;48.092;11.484;2022-08-21T14:44:53;1.60;;;1.50;;
10092;SDS011;5085;48.092;11.484;2022-08-21T14:47:20;2.00;;;1.67;;
10092;SDS011;5085;48.092;11.484;2022-08-21T14:49:45;1.70;;;1.60;;
10092;SDS011;5085;48.092;11.484;2022-08-21T14:52:11;3.30;;;1.90;;
10092;SDS011;5085;48.092;11.484;2022-08-21T14:54:36;1.83;;;1.73;;
10092;SDS011;5085;48.092;11.484;2022-08-21T14:57:04;2.63;;;1.80;;
10092;SDS011;5085;48.092;11.484;2022-08-21T14:59:29;2.70;;;2.00;;
10092;SDS011;5085;48.092;11.484;2022-08-21T15:01:55;2.65;;;1.83;;
10092;SDS011;5085;48.092;11.484;2022-08-21T15:04:21;4.50;;;2.10;;
10092;SDS011;5085;48.092;11.484;2022-08-21T15:06:46;3.83;;;2.67;;
10092;SDS011;5085;48.092;11.484;2022-08-21T15:09:11;2.78;;;2.58;;
10092;SDS011;5085;48.092;11.484;2022-08-21T15:11:36;2.47;;;2.28;;
10092;SDS011;5085;48.092;11.484;2022-08-21T15:14:02;1.95;;;1.85;;
10092;SDS011;5085;48.092;11.484;2022-08-21T15:16:28;2.60;;;2.40;;
10092;SDS011;5085;48.092;11.484;2022-08-21T15:18:55;2.40;;;2.20;;
10092;SDS011;5085;48.092;11.484;2022-08-21T15:21:20;3.03;;;2.45;;
10092;SDS011;5085;48.092;11.484;2022-08-21T15:23:46;2.35;;;2.10;;
10092;SDS011;5085;48.092;11.484;2022-08-21T15:26:11;2.20;;;2.00;;
10092;SDS011;5085;48.092;11.484;2022-08-21T15:28:36;2.72;;;2.10;;
10092;SDS011;5085;48.092;11.484;2022-08-21T15:31:03;2.47;;;2.28;;
10092;SDS011;5085;48.092;11.484;2022-08-21T15:33:28;3.17;;;2.10;;
10092;SDS011;5085;48.092;11.484;2022-08-21T15:35:54;2.40;;;2.20;;
10092;SDS011;5085;48.092;11.484;2022-08-21T15:38:19;3.70;;;2.63;;
10092;SDS011;5085;48.092;11.484;2022-08-21T15:40:44;2.30;;;2.10;;
10092;SDS011;5085;48.092;11.484;2022-08-21T15:43:16;2.63;;;2.42;;
10092;SDS011;5085;48.092;11.484;2022-08-21T15:45:44;2.75;;;2.47;;
10092;SDS011;5085;48.092;11.484;2022-08-21T15:48:09;2.55;;;2.30;;
10092;SDS011;5085;48.092;11.484;2022-08-21T15:50:34;2.85;;;2.42;;
10092;SDS011;5085;48.092;11.484;2022-08-21T15:52:59;2.50;;;2.30;;
10092;SDS011;5085;48.092;11.484;2022-08-21T15:55:24;2.55;;;2.35;;
10092;SDS011;5085;48.092;11.484;2022-08-21T15:57:51;2.58;;;2.08;;
10092;SDS011;5085;48.092;11.484;2022-08-21T16:00:19;2.78;;;2.25;;